createdAt,value
2023-05-04T00:00:01.372Z,11.0
2023-05-04T00:10:02.362Z,10.9
2023-05-04T00:20:01.123Z,10.6
2023-05-04T00:30:01.917Z,10.9
2023-05-04T00:40:03.307Z,10.9
2023-05-04T00:50:01.099Z,10.5
2023-05-04T01:00:03.455Z,10.5
2023-05-04T01:10:00.540Z,10.2
2023-05-04T01:20:02.940Z,10.0
2023-05-04T01:30:01.360Z,10.2
2023-05-04T01:40:01.916Z,10.4
2023-05-04T01:50:01.512Z,10.0
2023-05-04T02:00:01.305Z,9.7
2023-05-04T02:10:01.298Z,9.9
2023-05-04T02:20:00.575Z,9.8
2023-05-04T02:30:01.732Z,9.8
2023-05-04T02:40:01.568Z,9.8
2023-05-04T02:50:02.142Z,9.6
2023-05-04T03:00:01.690Z,9.4
2023-05-04T03:10:01.469Z,9.3
2023-05-04T03:20:02.498Z,8.9
2023-05-04T03:30:01.950Z,9.0
2023-05-04T03:40:01.528Z,9.4
2023-05-04T03:50:00.946Z,9.2
2023-05-04T04:00:01.024Z,8.9
2023-05-04T04:10:01.432Z,8.7
2023-05-04T04:20:01.082Z,8.5
2023-05-04T04:30:01.985Z,8.6
2023-05-04T04:40:01.034Z,9.2
2023-05-04T04:50:01.269Z,9.0
2023-05-04T05:00:01.285Z,9.6
2023-05-04T05:10:01.275Z,9.9
2023-05-04T05:20:00.572Z,9.7
2023-05-04T05:30:01.002Z,9.9
2023-05-04T05:40:01.281Z,10.2
2023-05-04T05:50:03.297Z,10.2
2023-05-04T06:00:00.605Z,10.8
2023-05-04T06:10:01.360Z,11.3
2023-05-04T06:20:01.287Z,11.7
2023-05-04T06:30:01.434Z,12.0
2023-05-04T06:40:03.605Z,12.8
2023-05-04T06:50:00.533Z,13.1
2023-05-04T07:00:02.187Z,13.3
2023-05-04T07:10:01.102Z,13.4
2023-05-04T07:20:02.023Z,14.1
2023-05-04T07:30:01.562Z,15.0
2023-05-04T07:40:01.252Z,15.8
2023-05-04T07:50:01.032Z,15.7
2023-05-04T08:00:01.984Z,16.5
2023-05-04T08:10:01.200Z,16.6
2023-05-04T08:20:01.032Z,17.3
2023-05-04T08:30:01.040Z,17.5
2023-05-04T08:40:01.293Z,17.7
2023-05-04T08:50:01.847Z,18.3
2023-05-04T09:00:00.997Z,18.8
2023-05-04T09:10:01.082Z,19.1
2023-05-04T09:20:01.261Z,19.7
2023-05-04T09:30:01.078Z,19.3
2023-05-04T09:40:01.135Z,20.2
2023-05-04T09:50:01.178Z,20.4
2023-05-04T10:00:01.026Z,19.8
2023-05-04T10:10:01.776Z,19.9
2023-05-04T10:20:01.210Z,20.1
2023-05-04T10:30:00.562Z,20.9
2023-05-04T10:40:01.087Z,21.5
2023-05-04T10:50:01.034Z,22.4
2023-05-04T11:00:02.618Z,22.2
2023-05-04T11:10:01.264Z,22.4
2023-05-04T11:20:01.300Z,23.7
2023-05-04T11:30:00.556Z,23.9
2023-05-04T11:40:01.118Z,23.8
2023-05-04T11:50:01.241Z,24.6
2023-05-04T12:00:01.341Z,24.0
2023-05-04T12:10:01.461Z,23.9
2023-05-04T12:20:01.586Z,24.0
2023-05-04T12:30:01.469Z,23.7
2023-05-04T12:40:04.390Z,23.8
2023-05-04T12:50:01.100Z,25.1
2023-05-04T13:00:01.113Z,25.7
2023-05-04T13:10:02.324Z,25.0
2023-05-04T13:20:01.923Z,25.4
2023-05-04T13:30:02.535Z,24.8
2023-05-04T13:40:01.407Z,25.1
2023-05-04T13:50:01.293Z,25.3
2023-05-04T14:00:07.477Z,24.9
2023-05-04T14:10:01.521Z,26.4
2023-05-04T14:20:01.324Z,27.0
2023-05-04T14:30:00.565Z,25.6
2023-05-04T14:50:01.363Z,26.1
2023-05-04T15:00:01.660Z,26.4
2023-05-04T15:10:01.447Z,26.0
2023-05-04T15:20:01.132Z,25.9
2023-05-04T15:30:00.569Z,26.8
2023-05-04T15:40:02.445Z,25.3
2023-05-04T15:50:01.216Z,27.0
2023-05-04T16:00:01.084Z,27.4
2023-05-04T16:10:01.125Z,25.1
2023-05-04T16:20:01.917Z,25.4
2023-05-04T16:30:01.094Z,25.3
2023-05-04T16:40:01.083Z,25.0
2023-05-04T16:50:01.042Z,23.2
2023-05-04T17:00:01.143Z,22.7
2023-05-04T17:10:01.016Z,22.6
2023-05-04T17:20:01.384Z,22.6
2023-05-04T17:30:01.122Z,22.2
2023-05-04T17:40:01.296Z,21.6
2023-05-04T17:50:01.069Z,21.2
2023-05-04T18:00:01.300Z,20.7
2023-05-04T18:10:01.075Z,20.1
2023-05-04T18:20:01.569Z,20.0
2023-05-04T18:30:01.065Z,19.9
2023-05-04T18:40:01.912Z,19.5
2023-05-04T18:50:01.060Z,19.0
2023-05-04T19:00:01.055Z,19.0
2023-05-04T19:10:02.580Z,19.0
2023-05-04T19:20:01.386Z,18.9
2023-05-04T19:30:02.361Z,18.6
2023-05-04T19:40:02.034Z,18.8
2023-05-04T19:50:01.037Z,18.4
2023-05-04T20:00:02.056Z,18.5
2023-05-04T20:10:02.872Z,18.1
2023-05-04T20:20:01.318Z,18.0
2023-05-04T20:30:01.015Z,17.8
2023-05-04T20:40:02.063Z,17.7
2023-05-04T20:50:01.243Z,17.5
2023-05-04T21:00:02.105Z,17.3
2023-05-04T21:10:02.452Z,16.9
2023-05-04T21:20:01.676Z,16.6
2023-05-04T21:30:00.554Z,16.7
2023-05-04T21:40:01.366Z,16.5
2023-05-04T21:50:01.046Z,16.2
2023-05-04T22:00:02.744Z,15.9
2023-05-04T22:10:01.069Z,16.0
2023-05-04T22:20:01.699Z,15.7
2023-05-04T22:30:01.129Z,15.5
2023-05-04T22:40:02.242Z,15.4
2023-05-04T22:50:01.135Z,15.0
2023-05-04T23:00:01.199Z,14.9
2023-05-04T23:10:02.365Z,14.8
2023-05-04T23:20:02.041Z,14.6
2023-05-04T23:30:02.696Z,14.7
2023-05-04T23:50:01.354Z,14.4
